sensor_id;sensor_type;location;lat;lon;timestamp;P1;durP1;ratioP1;P2;durP2;ratioP2
13067;SDS011;6600;51.362;6.686;2022-07-29T00:00:09;1.17;;;0.97;;
13067;SDS011;6600;51.362;6.686;2022-07-29T00:02:34;2.20;;;0.70;;
13067;SDS011;6600;51.362;6.686;2022-07-29T00:05:00;0.93;;;0.93;;
13067;SDS011;6600;51.362;6.686;2022-07-29T00:07:26;1.70;;;0.60;;
13067;SDS011;6600;51.362;6.686;2022-07-29T00:09:51;1.23;;;0.60;;
13067;SDS011;6600;51.362;6.686;2022-07-29T00:12:17;1.27;;;0.67;;
13067;SDS011;6600;51.362;6.686;2022-07-29T00:14:43;1.70;;;0.90;;
13067;SDS011;6600;51.362;6.686;2022-07-29T00:17:08;0.67;;;0.67;;
13067;SDS011;6600;51.362;6.686;2022-07-29T00:19:34;1.13;;;0.73;;
13067;SDS011;6600;51.362;6.686;2022-07-29T00:21:59;0.83;;;0.73;;
13067;SDS011;6600;51.362;6.686;2022-07-29T00:24:25;0.73;;;0.73;;
13067;SDS011;6600;51.362;6.686;2022-07-29T00:26:51;1.00;;;0.70;;
13067;SDS011;6600;51.362;6.686;2022-07-29T00:29:17;0.70;;;0.70;;
13067;SDS011;6600;51.362;6.686;2022-07-29T00:31:42;0.73;;;0.63;;
13067;SDS011;6600;51.362;6.686;2022-07-29T00:34:08;2.07;;;0.90;;
13067;SDS011;6600;51.362;6.686;2022-07-29T00:36:53;1.00;;;0.90;;
13067;SDS011;6600;51.362;6.686;2022-07-29T00:39:18;0.77;;;0.70;;
13067;SDS011;6600;51.362;6.686;2022-07-29T00:41:43;0.70;;;0.70;;
13067;SDS011;6600;51.362;6.686;2022-07-29T00:44:09;1.43;;;0.83;;
13067;SDS011;6600;51.362;6.686;2022-07-29T00:46:34;1.57;;;0.63;;
13067;SDS011;6600;51.362;6.686;2022-07-29T00:48:59;0.73;;;0.73;;
13067;SDS011;6600;51.362;6.686;2022-07-29T00:51:25;0.87;;;0.80;;
13067;SDS011;6600;51.362;6.686;2022-07-29T00:53:52;0.70;;;0.70;;
13067;SDS011;6600;51.362;6.686;2022-07-29T00:56:18;1.70;;;0.80;;
13067;SDS011;6600;51.362;6.686;2022-07-29T00:58:44;0.93;;;0.70;;
13067;SDS011;6600;51.362;6.686;2022-07-29T01:01:12;0.70;;;0.70;;
13067;SDS011;6600;51.362;6.686;2022-07-29T01:03:37;0.50;;;0.50;;
13067;SDS011;6600;51.362;6.686;2022-07-29T01:06:03;0.70;;;0.70;;
13067;SDS011;6600;51.362;6.686;2022-07-29T01:08:29;0.40;;;0.40;;
13067;SDS011;6600;51.362;6.686;2022-07-29T01:10:56;0.40;;;0.40;;
13067;SDS011;6600;51.362;6.686;2022-07-29T01:13:22;0.80;;;0.80;;
13067;SDS011;6600;51.362;6.686;2022-07-29T01:15:49;0.50;;;0.50;;
13067;SDS011;6600;51.362;6.686;2022-07-29T01:18:22;0.60;;;0.60;;
13067;SDS011;6600;51.362;6.686;2022-07-29T01:21:13;0.57;;;0.57;;
13067;SDS011;6600;51.362;6.686;2022-07-29T01:23:42;0.80;;;0.80;;
13067;SDS011;6600;51.362;6.686;2022-07-29T01:29:11;1.73;;;0.70;;
13067;SDS011;6600;51.362;6.686;2022-07-29T01:34:30;0.50;;;0.50;;
13067;SDS011;6600;51.362;6.686;2022-07-29T01:37:08;1.40;;;0.90;;
13067;SDS011;6600;51.362;6.686;2022-07-29T01:39:38;0.57;;;0.57;;
13067;SDS011;6600;51.362;6.686;2022-07-29T01:44:39;0.70;;;0.67;;
13067;SDS011;6600;51.362;6.686;2022-07-29T01:47:17;0.67;;;0.67;;
13067;SDS011;6600;51.362;6.686;2022-07-29T01:49:49;0.70;;;0.70;;
13067;SDS011;6600;51.362;6.686;2022-07-29T01:52:42;1.00;;;0.90;;
13067;SDS011;6600;51.362;6.686;2022-07-29T01:55:13;0.50;;;0.50;;
13067;SDS011;6600;51.362;6.686;2022-07-29T01:57:42;0.80;;;0.80;;
13067;SDS011;6600;51.362;6.686;2022-07-29T02:00:09;0.73;;;0.53;;
13067;SDS011;6600;51.362;6.686;2022-07-29T02:02:36;0.70;;;0.70;;
13067;SDS011;6600;51.362;6.686;2022-07-29T02:05:04;1.20;;;0.87;;
13067;SDS011;6600;51.362;6.686;2022-07-29T02:07:32;2.20;;;0.60;;
13067;SDS011;6600;51.362;6.686;2022-07-29T02:09:59;1.13;;;0.90;;
13067;SDS011;6600;51.362;6.686;2022-07-29T02:12:27;0.93;;;0.83;;
13067;SDS011;6600;51.362;6.686;2022-07-29T02:14:56;2.10;;;0.70;;
13067;SDS011;6600;51.362;6.686;2022-07-29T02:17:31;0.70;;;0.67;;
13067;SDS011;6600;51.362;6.686;2022-07-29T02:20:02;0.60;;;0.47;;
13067;SDS011;6600;51.362;6.686;2022-07-29T02:22:29;1.43;;;0.70;;
13067;SDS011;6600;51.362;6.686;2022-07-29T02:24:58;0.73;;;0.63;;
13067;SDS011;6600;51.362;6.686;2022-07-29T02:27:24;1.70;;;1.17;;
13067;SDS011;6600;51.362;6.686;2022-07-29T02:29:53;3.53;;;0.87;;
13067;SDS011;6600;51.362;6.686;2022-07-29T02:32:19;0.80;;;0.80;;
13067;SDS011;6600;51.362;6.686;2022-07-29T02:34:47;1.20;;;0.80;;
13067;SDS011;6600;51.362;6.686;2022-07-29T02:37:14;2.17;;;0.87;;
13067;SDS011;6600;51.362;6.686;2022-07-29T02:39:42;1.27;;;0.80;;
13067;SDS011;6600;51.362;6.686;2022-07-29T02:42:11;1.77;;;0.80;;
13067;SDS011;6600;51.362;6.686;2022-07-29T02:44:39;0.60;;;0.60;;
13067;SDS011;6600;51.362;6.686;2022-07-29T02:49:52;0.50;;;0.50;;
13067;SDS011;6600;51.362;6.686;2022-07-29T02:54:58;0.63;;;0.63;;
13067;SDS011;6600;51.362;6.686;2022-07-29T02:57:37;0.60;;;0.40;;
13067;SDS011;6600;51.362;6.686;2022-07-29T03:00:16;0.50;;;0.50;;
13067;SDS011;6600;51.362;6.686;2022-07-29T03:02:43;0.43;;;0.43;;
13067;SDS011;6600;51.362;6.686;2022-07-29T03:05:15;0.30;;;0.30;;
13067;SDS011;6600;51.362;6.686;2022-07-29T03:07:46;0.60;;;0.60;;
13067;SDS011;6600;51.362;6.686;2022-07-29T03:10:20;0.53;;;0.50;;
13067;SDS011;6600;51.362;6.686;2022-07-29T03:12:46;1.07;;;0.60;;
13067;SDS011;6600;51.362;6.686;2022-07-29T03:15:13;0.50;;;0.50;;
13067;SDS011;6600;51.362;6.686;2022-07-29T03:17:39;1.27;;;0.57;;
13067;SDS011;6600;51.362;6.686;2022-07-29T03:20:06;0.50;;;0.50;;
13067;SDS011;6600;51.362;6.686;2022-07-29T03:22:32;1.40;;;0.50;;
13067;SDS011;6600;51.362;6.686;2022-07-29T03:24:58;0.40;;;0.30;;
13067;SDS011;6600;51.362;6.686;2022-07-29T03:27:32;0.37;;;0.37;;
13067;SDS011;6600;51.362;6.686;2022-07-29T03:29:59;0.83;;;0.47;;
13067;SDS011;6600;51.362;6.686;2022-07-29T03:32:24;1.60;;;0.67;;
13067;SDS011;6600;51.362;6.686;2022-07-29T03:34:49;0.73;;;0.73;;
13067;SDS011;6600;51.362;6.686;2022-07-29T03:37:15;0.50;;;0.50;;
13067;SDS011;6600;51.362;6.686;2022-07-29T03:39:40;0.50;;;0.50;;
13067;SDS011;6600;51.362;6.686;2022-07-29T03:42:06;0.73;;;0.63;;
13067;SDS011;6600;51.362;6.686;2022-07-29T03:44:35;0.70;;;0.60;;
13067;SDS011;6600;51.362;6.686;2022-07-29T03:47:02;0.50;;;0.50;;
13067;SDS011;6600;51.362;6.686;2022-07-29T03:49:31;0.50;;;0.50;;
13067;SDS011;6600;51.362;6.686;2022-07-29T03:51:59;1.03;;;0.70;;
13067;SDS011;6600;51.362;6.686;2022-07-29T03:54:25;0.63;;;0.40;;
13067;SDS011;6600;51.362;6.686;2022-07-29T03:56:51;1.50;;;0.77;;
13067;SDS011;6600;51.362;6.686;2022-07-29T03:59:18;0.97;;;0.60;;
13067;SDS011;6600;51.362;6.686;2022-07-29T04:01:46;1.60;;;0.70;;
13067;SDS011;6600;51.362;6.686;2022-07-29T04:04:13;0.73;;;0.70;;
13067;SDS011;6600;51.362;6.686;2022-07-29T04:06:39;1.00;;;0.90;;
13067;SDS011;6600;51.362;6.686;2022-07-29T04:09:09;1.60;;;0.83;;
13067;SDS011;6600;51.362;6.686;2022-07-29T04:11:35;0.97;;;0.90;;
13067;SDS011;6600;51.362;6.686;2022-07-29T04:14:03;0.90;;;0.90;;
13067;SDS011;6600;51.362;6.686;2022-07-29T04:16:28;0.70;;;0.70;;
13067;SDS011;6600;51.362;6.686;2022-07-29T04:18:54;1.93;;;1.50;;
13067;SDS011;6600;51.362;6.686;2022-07-29T04:21:19;0.80;;;0.80;;
13067;SDS011;6600;51.362;6.686;2022-07-29T04:23:44;1.30;;;0.50;;
13067;SDS011;6600;51.362;6.686;2022-07-29T04:26:14;1.30;;;0.97;;
13067;SDS011;6600;51.362;6.686;2022-07-29T04:28:39;1.50;;;0.93;;
13067;SDS011;6600;51.362;6.686;2022-07-29T04:31:05;0.80;;;0.80;;
13067;SDS011;6600;51.362;6.686;2022-07-29T04:33:30;0.87;;;0.87;;
13067;SDS011;6600;51.362;6.686;2022-07-29T04:35:56;0.97;;;0.90;;
13067;SDS011;6600;51.362;6.686;2022-07-29T04:38:21;1.73;;;0.87;;
13067;SDS011;6600;51.362;6.686;2022-07-29T04:40:47;1.40;;;1.03;;
13067;SDS011;6600;51.362;6.686;2022-07-29T04:43:12;2.03;;;1.47;;
13067;SDS011;6600;51.362;6.686;2022-07-29T04:45:37;0.80;;;0.80;;
13067;SDS011;6600;51.362;6.686;2022-07-29T04:48:03;0.90;;;0.90;;
13067;SDS011;6600;51.362;6.686;2022-07-29T04:50:29;0.83;;;0.83;;
13067;SDS011;6600;51.362;6.686;2022-07-29T04:52:54;2.13;;;1.10;;
13067;SDS011;6600;51.362;6.686;2022-07-29T04:55:19;1.27;;;1.00;;
13067;SDS011;6600;51.362;6.686;2022-07-29T04:57:45;0.80;;;0.80;;
13067;SDS011;6600;51.362;6.686;2022-07-29T05:00:10;0.60;;;0.60;;
13067;SDS011;6600;51.362;6.686;2022-07-29T05:02:36;1.90;;;0.90;;
13067;SDS011;6600;51.362;6.686;2022-07-29T05:05:01;0.80;;;0.80;;
13067;SDS011;6600;51.362;6.686;2022-07-29T05:07:27;2.17;;;1.10;;
13067;SDS011;6600;51.362;6.686;2022-07-29T05:09:52;1.20;;;1.10;;
13067;SDS011;6600;51.362;6.686;2022-07-29T05:12:18;1.17;;;1.10;;
13067;SDS011;6600;51.362;6.686;2022-07-29T05:14:43;1.67;;;1.40;;
13067;SDS011;6600;51.362;6.686;2022-07-29T05:17:08;3.60;;;1.40;;
13067;SDS011;6600;51.362;6.686;2022-07-29T05:19:34;1.70;;;1.10;;
13067;SDS011;6600;51.362;6.686;2022-07-29T05:21:59;3.93;;;1.77;;
13067;SDS011;6600;51.362;6.686;2022-07-29T05:24:25;3.87;;;1.63;;
13067;SDS011;6600;51.362;6.686;2022-07-29T05:26:50;1.73;;;1.40;;
13067;SDS011;6600;51.362;6.686;2022-07-29T05:29:15;1.40;;;1.30;;
13067;SDS011;6600;51.362;6.686;2022-07-29T05:31:41;1.13;;;1.00;;
13067;SDS011;6600;51.362;6.686;2022-07-29T05:34:06;1.60;;;1.43;;
13067;SDS011;6600;51.362;6.686;2022-07-29T05:36:31;1.80;;;1.20;;
13067;SDS011;6600;51.362;6.686;2022-07-29T05:38:57;1.80;;;1.53;;
13067;SDS011;6600;51.362;6.686;2022-07-29T05:41:22;1.67;;;0.97;;
13067;SDS011;6600;51.362;6.686;2022-07-29T05:43:48;0.80;;;0.80;;
13067;SDS011;6600;51.362;6.686;2022-07-29T05:46:13;1.33;;;0.73;;
13067;SDS011;6600;51.362;6.686;2022-07-29T05:48:41;1.43;;;1.17;;
13067;SDS011;6600;51.362;6.686;2022-07-29T05:51:06;2.20;;;1.20;;
13067;SDS011;6600;51.362;6.686;2022-07-29T05:53:32;0.97;;;0.93;;
13067;SDS011;6600;51.362;6.686;2022-07-29T05:55:57;0.73;;;0.73;;
13067;SDS011;6600;51.362;6.686;2022-07-29T05:58:22;2.43;;;1.20;;
13067;SDS011;6600;51.362;6.686;2022-07-29T06:00:48;1.53;;;1.10;;
13067;SDS011;6600;51.362;6.686;2022-07-29T06:03:13;1.70;;;1.20;;
13067;SDS011;6600;51.362;6.686;2022-07-29T06:05:39;1.43;;;1.03;;
13067;SDS011;6600;51.362;6.686;2022-07-29T06:08:04;1.50;;;1.40;;
13067;SDS011;6600;51.362;6.686;2022-07-29T06:10:36;2.30;;;1.10;;
13067;SDS011;6600;51.362;6.686;2022-07-29T06:13:01;1.03;;;1.03;;
13067;SDS011;6600;51.362;6.686;2022-07-29T06:15:27;0.90;;;0.90;;
13067;SDS011;6600;51.362;6.686;2022-07-29T06:17:52;2.23;;;1.37;;
13067;SDS011;6600;51.362;6.686;2022-07-29T06:20:17;1.40;;;1.13;;
13067;SDS011;6600;51.362;6.686;2022-07-29T06:22:43;1.10;;;1.00;;
13067;SDS011;6600;51.362;6.686;2022-07-29T06:25:08;0.90;;;0.90;;
13067;SDS011;6600;51.362;6.686;2022-07-29T06:27:34;1.03;;;1.03;;
13067;SDS011;6600;51.362;6.686;2022-07-29T06:29:59;1.20;;;0.80;;
13067;SDS011;6600;51.362;6.686;2022-07-29T06:32:26;1.43;;;1.33;;
13067;SDS011;6600;51.362;6.686;2022-07-29T06:34:52;1.57;;;1.13;;
13067;SDS011;6600;51.362;6.686;2022-07-29T06:37:17;1.37;;;1.20;;
13067;SDS011;6600;51.362;6.686;2022-07-29T06:39:42;1.53;;;1.20;;
13067;SDS011;6600;51.362;6.686;2022-07-29T06:42:08;1.40;;;1.30;;
13067;SDS011;6600;51.362;6.686;2022-07-29T06:44:33;1.43;;;1.20;;
13067;SDS011;6600;51.362;6.686;2022-07-29T06:46:59;2.60;;;1.23;;
13067;SDS011;6600;51.362;6.686;2022-07-29T06:49:25;1.67;;;1.43;;
13067;SDS011;6600;51.362;6.686;2022-07-29T06:51:51;3.23;;;1.07;;
13067;SDS011;6600;51.362;6.686;2022-07-29T06:54:17;1.80;;;1.37;;
13067;SDS011;6600;51.362;6.686;2022-07-29T06:56:42;1.67;;;1.33;;
13067;SDS011;6600;51.362;6.686;2022-07-29T06:59:08;1.20;;;0.70;;
13067;SDS011;6600;51.362;6.686;2022-07-29T07:01:36;1.30;;;1.20;;
13067;SDS011;6600;51.362;6.686;2022-07-29T07:04:02;1.50;;;1.40;;
13067;SDS011;6600;51.362;6.686;2022-07-29T07:06:28;2.17;;;1.17;;
13067;SDS011;6600;51.362;6.686;2022-07-29T07:08:53;1.50;;;1.40;;
13067;SDS011;6600;51.362;6.686;2022-07-29T07:11:19;1.70;;;1.20;;
13067;SDS011;6600;51.362;6.686;2022-07-29T07:13:44;2.10;;;1.10;;
13067;SDS011;6600;51.362;6.686;2022-07-29T07:16:10;0.97;;;0.97;;
13067;SDS011;6600;51.362;6.686;2022-07-29T07:18:35;0.97;;;0.97;;
13067;SDS011;6600;51.362;6.686;2022-07-29T07:21:00;1.10;;;1.00;;
13067;SDS011;6600;51.362;6.686;2022-07-29T07:23:26;1.47;;;1.37;;
13067;SDS011;6600;51.362;6.686;2022-07-29T07:25:51;1.50;;;1.40;;
13067;SDS011;6600;51.362;6.686;2022-07-29T07:28:17;1.30;;;1.20;;
13067;SDS011;6600;51.362;6.686;2022-07-29T07:30:42;1.00;;;1.00;;
13067;SDS011;6600;51.362;6.686;2022-07-29T07:33:08;2.40;;;1.37;;
13067;SDS011;6600;51.362;6.686;2022-07-29T07:35:34;5.10;;;1.60;;
13067;SDS011;6600;51.362;6.686;2022-07-29T07:37:59;0.97;;;0.83;;
13067;SDS011;6600;51.362;6.686;2022-07-29T07:40:25;1.93;;;1.70;;
13067;SDS011;6600;51.362;6.686;2022-07-29T07:42:50;2.17;;;1.67;;
13067;SDS011;6600;51.362;6.686;2022-07-29T07:45:15;1.50;;;1.40;;
13067;SDS011;6600;51.362;6.686;2022-07-29T07:47:42;1.90;;;1.60;;
13067;SDS011;6600;51.362;6.686;2022-07-29T07:50:08;1.30;;;1.20;;
13067;SDS011;6600;51.362;6.686;2022-07-29T07:52:37;2.33;;;2.00;;
13067;SDS011;6600;51.362;6.686;2022-07-29T07:55:11;1.53;;;1.43;;
13067;SDS011;6600;51.362;6.686;2022-07-29T07:57:36;2.23;;;1.90;;
13067;SDS011;6600;51.362;6.686;2022-07-29T08:00:02;1.40;;;1.30;;
13067;SDS011;6600;51.362;6.686;2022-07-29T08:02:28;2.73;;;1.80;;
13067;SDS011;6600;51.362;6.686;2022-07-29T08:04:54;4.40;;;1.77;;
13067;SDS011;6600;51.362;6.686;2022-07-29T08:07:19;1.40;;;1.30;;
13067;SDS011;6600;51.362;6.686;2022-07-29T08:09:45;1.87;;;1.47;;
13067;SDS011;6600;51.362;6.686;2022-07-29T08:12:10;2.27;;;2.07;;
13067;SDS011;6600;51.362;6.686;2022-07-29T08:14:35;1.53;;;1.40;;
13067;SDS011;6600;51.362;6.686;2022-07-29T08:17:01;1.70;;;1.57;;
13067;SDS011;6600;51.362;6.686;2022-07-29T08:19:26;1.50;;;1.40;;
13067;SDS011;6600;51.362;6.686;2022-07-29T08:21:52;2.63;;;1.90;;
13067;SDS011;6600;51.362;6.686;2022-07-29T08:24:18;2.03;;;1.90;;
13067;SDS011;6600;51.362;6.686;2022-07-29T08:27:02;2.13;;;1.67;;
13067;SDS011;6600;51.362;6.686;2022-07-29T08:29:27;2.20;;;2.00;;
13067;SDS011;6600;51.362;6.686;2022-07-29T08:31:53;2.20;;;2.00;;
13067;SDS011;6600;51.362;6.686;2022-07-29T08:34:18;5.53;;;2.13;;
13067;SDS011;6600;51.362;6.686;2022-07-29T08:36:44;1.90;;;1.70;;
13067;SDS011;6600;51.362;6.686;2022-07-29T08:39:09;3.80;;;2.33;;
13067;SDS011;6600;51.362;6.686;2022-07-29T08:41:34;3.03;;;2.37;;
13067;SDS011;6600;51.362;6.686;2022-07-29T08:44:00;1.93;;;1.80;;
13067;SDS011;6600;51.362;6.686;2022-07-29T08:46:25;2.83;;;1.70;;
13067;SDS011;6600;51.362;6.686;2022-07-29T08:48:50;3.60;;;1.83;;
13067;SDS011;6600;51.362;6.686;2022-07-29T08:51:17;5.20;;;2.40;;
13067;SDS011;6600;51.362;6.686;2022-07-29T08:53:44;2.60;;;1.90;;
13067;SDS011;6600;51.362;6.686;2022-07-29T08:56:12;2.53;;;1.87;;
13067;SDS011;6600;51.362;6.686;2022-07-29T08:58:39;3.80;;;1.80;;
13067;SDS011;6600;51.362;6.686;2022-07-29T09:01:05;3.13;;;1.60;;
13067;SDS011;6600;51.362;6.686;2022-07-29T09:03:32;1.97;;;1.80;;
13067;SDS011;6600;51.362;6.686;2022-07-29T09:05:59;2.70;;;1.83;;
13067;SDS011;6600;51.362;6.686;2022-07-29T09:08:26;2.00;;;1.60;;
13067;SDS011;6600;51.362;6.686;2022-07-29T09:10:52;2.27;;;1.80;;
13067;SDS011;6600;51.362;6.686;2022-07-29T09:13:18;2.03;;;1.60;;
13067;SDS011;6600;51.362;6.686;2022-07-29T09:15:44;3.17;;;1.93;;
13067;SDS011;6600;51.362;6.686;2022-07-29T09:18:10;2.10;;;1.97;;
13067;SDS011;6600;51.362;6.686;2022-07-29T09:20:35;1.83;;;1.53;;
13067;SDS011;6600;51.362;6.686;2022-07-29T09:23:19;1.67;;;1.57;;
13067;SDS011;6600;51.362;6.686;2022-07-29T09:25:44;1.80;;;1.70;;
13067;SDS011;6600;51.362;6.686;2022-07-29T09:28:14;3.30;;;1.90;;
13067;SDS011;6600;51.362;6.686;2022-07-29T09:30:56;2.37;;;1.97;;
13067;SDS011;6600;51.362;6.686;2022-07-29T09:33:31;4.10;;;2.00;;
13067;SDS011;6600;51.362;6.686;2022-07-29T09:36:09;3.40;;;2.23;;
13067;SDS011;6600;51.362;6.686;2022-07-29T09:38:35;2.63;;;1.40;;
13067;SDS011;6600;51.362;6.686;2022-07-29T09:41:02;1.50;;;1.40;;
13067;SDS011;6600;51.362;6.686;2022-07-29T09:43:29;2.30;;;1.93;;
13067;SDS011;6600;51.362;6.686;2022-07-29T09:45:54;2.33;;;1.80;;
13067;SDS011;6600;51.362;6.686;2022-07-29T09:48:23;2.90;;;1.70;;
13067;SDS011;6600;51.362;6.686;2022-07-29T09:50:50;3.83;;;2.00;;
13067;SDS011;6600;51.362;6.686;2022-07-29T09:56:12;2.43;;;2.13;;
13067;SDS011;6600;51.362;6.686;2022-07-29T09:58:39;2.07;;;1.87;;
13067;SDS011;6600;51.362;6.686;2022-07-29T10:01:04;2.40;;;2.13;;
13067;SDS011;6600;51.362;6.686;2022-07-29T10:03:29;2.90;;;2.60;;
13067;SDS011;6600;51.362;6.686;2022-07-29T10:08:30;2.27;;;2.00;;
13067;SDS011;6600;51.362;6.686;2022-07-29T10:11:08;3.63;;;2.10;;
13067;SDS011;6600;51.362;6.686;2022-07-29T10:13:34;2.50;;;1.93;;
13067;SDS011;6600;51.362;6.686;2022-07-29T10:16:00;2.87;;;2.50;;
13067;SDS011;6600;51.362;6.686;2022-07-29T10:18:26;2.43;;;2.23;;
13067;SDS011;6600;51.362;6.686;2022-07-29T10:20:51;2.27;;;2.07;;
13067;SDS011;6600;51.362;6.686;2022-07-29T10:23:17;2.20;;;2.00;;
13067;SDS011;6600;51.362;6.686;2022-07-29T10:25:44;3.27;;;1.93;;
13067;SDS011;6600;51.362;6.686;2022-07-29T10:28:10;2.13;;;1.60;;
13067;SDS011;6600;51.362;6.686;2022-07-29T10:30:36;1.83;;;1.57;;
13067;SDS011;6600;51.362;6.686;2022-07-29T10:41:53;1.60;;;1.50;;
13067;SDS011;6600;51.362;6.686;2022-07-29T10:44:26;2.50;;;1.63;;
13067;SDS011;6600;51.362;6.686;2022-07-29T10:46:53;3.27;;;1.80;;
13067;SDS011;6600;51.362;6.686;2022-07-29T10:49:20;2.87;;;1.63;;
13067;SDS011;6600;51.362;6.686;2022-07-29T10:54:15;2.50;;;2.20;;
13067;SDS011;6600;51.362;6.686;2022-07-29T10:56:41;2.17;;;1.60;;
13067;SDS011;6600;51.362;6.686;2022-07-29T11:01:51;1.63;;;1.47;;
13067;SDS011;6600;51.362;6.686;2022-07-29T11:05:03;1.20;;;1.13;;
13067;SDS011;6600;51.362;6.686;2022-07-29T11:07:09;3.17;;;1.83;;
13067;SDS011;6600;51.362;6.686;2022-07-29T11:09:34;2.83;;;1.77;;
13067;SDS011;6600;51.362;6.686;2022-07-29T11:12:00;4.93;;;2.20;;
13067;SDS011;6600;51.362;6.686;2022-07-29T11:17:22;2.90;;;2.20;;
13067;SDS011;6600;51.362;6.686;2022-07-29T11:19:48;4.40;;;2.40;;
13067;SDS011;6600;51.362;6.686;2022-07-29T11:22:35;3.17;;;2.60;;
13067;SDS011;6600;51.362;6.686;2022-07-29T11:25:13;5.17;;;2.27;;
13067;SDS011;6600;51.362;6.686;2022-07-29T11:27:39;2.20;;;1.63;;
13067;SDS011;6600;51.362;6.686;2022-07-29T11:30:05;2.20;;;2.00;;
13067;SDS011;6600;51.362;6.686;2022-07-29T11:32:38;1.97;;;1.77;;
13067;SDS011;6600;51.362;6.686;2022-07-29T11:35:16;4.63;;;2.20;;
13067;SDS011;6600;51.362;6.686;2022-07-29T11:37:42;2.47;;;1.70;;
13067;SDS011;6600;51.362;6.686;2022-07-29T11:40:09;3.53;;;1.63;;
13067;SDS011;6600;51.362;6.686;2022-07-29T11:45:03;2.30;;;2.10;;
13067;SDS011;6600;51.362;6.686;2022-07-29T11:47:35;2.33;;;2.03;;
13067;SDS011;6600;51.362;6.686;2022-07-29T11:50:13;3.30;;;1.30;;
13067;SDS011;6600;51.362;6.686;2022-07-29T11:52:42;1.67;;;1.53;;
13067;SDS011;6600;51.362;6.686;2022-07-29T11:55:18;3.03;;;1.97;;
13067;SDS011;6600;51.362;6.686;2022-07-29T11:57:54;3.50;;;1.87;;
13067;SDS011;6600;51.362;6.686;2022-07-29T12:02:58;1.70;;;1.60;;
13067;SDS011;6600;51.362;6.686;2022-07-29T12:08:03;1.97;;;1.60;;
13067;SDS011;6600;51.362;6.686;2022-07-29T12:10:30;1.93;;;1.73;;
13067;SDS011;6600;51.362;6.686;2022-07-29T12:12:56;1.93;;;1.50;;
13067;SDS011;6600;51.362;6.686;2022-07-29T12:15:21;2.27;;;1.30;;
13067;SDS011;6600;51.362;6.686;2022-07-29T12:17:48;2.53;;;1.83;;
13067;SDS011;6600;51.362;6.686;2022-07-29T12:20:21;2.40;;;1.63;;
13067;SDS011;6600;51.362;6.686;2022-07-29T12:22:51;2.30;;;1.50;;
13067;SDS011;6600;51.362;6.686;2022-07-29T12:25:18;1.90;;;1.70;;
13067;SDS011;6600;51.362;6.686;2022-07-29T12:27:44;1.97;;;1.43;;
13067;SDS011;6600;51.362;6.686;2022-07-29T12:30:11;2.07;;;1.47;;
13067;SDS011;6600;51.362;6.686;2022-07-29T12:32:39;1.57;;;1.40;;
13067;SDS011;6600;51.362;6.686;2022-07-29T12:35:07;1.50;;;1.40;;
13067;SDS011;6600;51.362;6.686;2022-07-29T12:37:37;1.93;;;1.60;;
13067;SDS011;6600;51.362;6.686;2022-07-29T12:40:03;1.67;;;1.13;;
13067;SDS011;6600;51.362;6.686;2022-07-29T12:42:30;1.43;;;1.10;;
13067;SDS011;6600;51.362;6.686;2022-07-29T12:44:56;1.53;;;1.40;;
13067;SDS011;6600;51.362;6.686;2022-07-29T12:47:21;1.20;;;1.10;;
13067;SDS011;6600;51.362;6.686;2022-07-29T12:49:48;1.30;;;1.20;;
13067;SDS011;6600;51.362;6.686;2022-07-29T12:52:30;2.03;;;1.40;;
13067;SDS011;6600;51.362;6.686;2022-07-29T12:54:57;1.40;;;1.30;;
13067;SDS011;6600;51.362;6.686;2022-07-29T12:57:23;1.40;;;1.30;;
13067;SDS011;6600;51.362;6.686;2022-07-29T13:02:57;2.23;;;1.40;;
13067;SDS011;6600;51.362;6.686;2022-07-29T13:05:37;1.70;;;1.33;;
13067;SDS011;6600;51.362;6.686;2022-07-29T13:08:12;1.63;;;1.30;;
13067;SDS011;6600;51.362;6.686;2022-07-29T13:10:38;1.60;;;1.47;;
13067;SDS011;6600;51.362;6.686;2022-07-29T13:13:11;1.33;;;1.23;;
13067;SDS011;6600;51.362;6.686;2022-07-29T13:15:38;1.97;;;1.40;;
13067;SDS011;6600;51.362;6.686;2022-07-29T13:18:25;1.53;;;1.30;;
13067;SDS011;6600;51.362;6.686;2022-07-29T13:20:51;1.30;;;1.20;;
13067;SDS011;6600;51.362;6.686;2022-07-29T13:23:17;1.57;;;1.40;;
13067;SDS011;6600;51.362;6.686;2022-07-29T13:25:42;1.63;;;1.43;;
13067;SDS011;6600;51.362;6.686;2022-07-29T13:28:08;1.87;;;1.30;;
13067;SDS011;6600;51.362;6.686;2022-07-29T13:30:33;1.00;;;0.93;;
13067;SDS011;6600;51.362;6.686;2022-07-29T13:32:59;3.63;;;1.40;;
13067;SDS011;6600;51.362;6.686;2022-07-29T13:35:24;3.77;;;1.40;;
13067;SDS011;6600;51.362;6.686;2022-07-29T13:37:49;1.37;;;1.10;;
13067;SDS011;6600;51.362;6.686;2022-07-29T13:40:15;1.40;;;1.30;;
13067;SDS011;6600;51.362;6.686;2022-07-29T13:42:40;1.13;;;1.00;;
13067;SDS011;6600;51.362;6.686;2022-07-29T13:45:07;1.97;;;1.53;;
13067;SDS011;6600;51.362;6.686;2022-07-29T13:47:34;3.27;;;1.33;;
13067;SDS011;6600;51.362;6.686;2022-07-29T13:50:00;1.50;;;1.40;;
13067;SDS011;6600;51.362;6.686;2022-07-29T13:52:26;1.43;;;1.33;;
13067;SDS011;6600;51.362;6.686;2022-07-29T13:54:51;1.13;;;1.03;;
13067;SDS011;6600;51.362;6.686;2022-07-29T13:57:16;1.43;;;1.33;;
13067;SDS011;6600;51.362;6.686;2022-07-29T13:59:42;1.30;;;1.00;;
13067;SDS011;6600;51.362;6.686;2022-07-29T14:02:08;1.50;;;1.30;;
13067;SDS011;6600;51.362;6.686;2022-07-29T14:04:34;1.50;;;1.40;;
13067;SDS011;6600;51.362;6.686;2022-07-29T14:07:00;1.60;;;1.40;;
13067;SDS011;6600;51.362;6.686;2022-07-29T14:09:26;1.37;;;1.27;;
13067;SDS011;6600;51.362;6.686;2022-07-29T14:11:51;2.83;;;1.30;;
13067;SDS011;6600;51.362;6.686;2022-07-29T14:14:17;1.60;;;1.17;;
13067;SDS011;6600;51.362;6.686;2022-07-29T14:16:43;1.53;;;1.00;;
13067;SDS011;6600;51.362;6.686;2022-07-29T14:19:08;0.90;;;0.90;;
13067;SDS011;6600;51.362;6.686;2022-07-29T14:21:34;1.47;;;1.10;;
13067;SDS011;6600;51.362;6.686;2022-07-29T14:23:59;1.20;;;1.00;;
13067;SDS011;6600;51.362;6.686;2022-07-29T14:26:25;1.23;;;0.70;;
13067;SDS011;6600;51.362;6.686;2022-07-29T14:28:51;2.00;;;1.30;;
13067;SDS011;6600;51.362;6.686;2022-07-29T14:31:16;1.00;;;1.00;;
13067;SDS011;6600;51.362;6.686;2022-07-29T14:33:41;1.07;;;1.07;;
13067;SDS011;6600;51.362;6.686;2022-07-29T14:36:07;1.20;;;1.20;;
13067;SDS011;6600;51.362;6.686;2022-07-29T14:38:34;1.30;;;1.20;;
13067;SDS011;6600;51.362;6.686;2022-07-29T14:41:00;1.13;;;1.10;;
13067;SDS011;6600;51.362;6.686;2022-07-29T14:43:25;1.00;;;1.00;;
13067;SDS011;6600;51.362;6.686;2022-07-29T14:45:51;1.10;;;1.00;;
13067;SDS011;6600;51.362;6.686;2022-07-29T14:48:16;1.67;;;1.20;;
13067;SDS011;6600;51.362;6.686;2022-07-29T14:50:41;1.53;;;1.43;;
13067;SDS011;6600;51.362;6.686;2022-07-29T14:53:07;1.40;;;1.30;;
13067;SDS011;6600;51.362;6.686;2022-07-29T14:55:32;1.87;;;1.47;;
13067;SDS011;6600;51.362;6.686;2022-07-29T14:57:57;1.43;;;1.30;;
13067;SDS011;6600;51.362;6.686;2022-07-29T15:00:24;2.10;;;1.50;;
13067;SDS011;6600;51.362;6.686;2022-07-29T15:02:50;1.77;;;1.20;;
13067;SDS011;6600;51.362;6.686;2022-07-29T15:05:15;1.40;;;1.30;;
13067;SDS011;6600;51.362;6.686;2022-07-29T15:07:40;1.40;;;1.30;;
13067;SDS011;6600;51.362;6.686;2022-07-29T15:10:06;2.83;;;1.20;;
13067;SDS011;6600;51.362;6.686;2022-07-29T15:12:32;1.83;;;1.40;;
13067;SDS011;6600;51.362;6.686;2022-07-29T15:14:57;1.20;;;1.00;;
13067;SDS011;6600;51.362;6.686;2022-07-29T15:17:23;1.20;;;1.10;;
13067;SDS011;6600;51.362;6.686;2022-07-29T15:19:48;1.20;;;1.10;;
13067;SDS011;6600;51.362;6.686;2022-07-29T15:22:13;1.23;;;0.97;;
13067;SDS011;6600;51.362;6.686;2022-07-29T15:24:39;1.63;;;1.10;;
13067;SDS011;6600;51.362;6.686;2022-07-29T15:27:04;1.00;;;1.00;;
13067;SDS011;6600;51.362;6.686;2022-07-29T15:29:29;1.07;;;0.97;;
13067;SDS011;6600;51.362;6.686;2022-07-29T15:31:55;1.37;;;1.10;;
13067;SDS011;6600;51.362;6.686;2022-07-29T15:34:20;1.20;;;0.93;;
13067;SDS011;6600;51.362;6.686;2022-07-29T15:36:48;1.67;;;1.20;;
13067;SDS011;6600;51.362;6.686;2022-07-29T15:39:13;1.20;;;1.10;;
13067;SDS011;6600;51.362;6.686;2022-07-29T15:41:39;1.93;;;1.40;;
13067;SDS011;6600;51.362;6.686;2022-07-29T15:44:04;1.30;;;1.20;;
13067;SDS011;6600;51.362;6.686;2022-07-29T15:46:29;1.47;;;1.37;;